Time;durP1;ratioP1;P1;durP2;ratioP2;P2;SDS_P1;SDS_P2;PMS_P1;PMS_P2;Temp;Humidity;BMP_temperature;BMP_pressure;BME280_temperature;BME280_humidity;BME280_pressure;Samples;Min_cycle;Max_cycle;Signal;HPM_P1;HPM_P2
2022/03/24 00:02:01;;;;;;;61.63;28.88;;;;;;;7.36;39.62;101382.22;5018048;28;20028;-72
2022/03/24 00:04:26;;;;;;;64.72;29.80;;;;;;;7.30;39.39;101379.09;5002225;28;20032;-74
2022/03/24 00:06:53;;;;;;;56.05;29.58;;;;;;;7.20;40.22;101367.94;5035200;28;20102;-73
2022/03/24 00:09:18;;;;;;;59.75;29.60;;;;;;;7.23;39.61;101384.09;5053039;28;20389;-75
2022/03/24 00:11:47;;;;;;;59.25;29.60;;;;;;;7.14;39.65;101376.13;5052352;28;20079;-72
2022/03/24 00:14:13;;;;;;;57.47;29.75;;;;;;;7.13;40.24;101380.19;5035717;28;20020;-72
2022/03/24 00:16:39;;;;;;;56.80;28.65;;;;;;;7.06;40.36;101382.31;5035204;28;20458;-73
2022/03/24 00:19:07;;;;;;;61.70;31.08;;;;;;;7.01;39.92;101385.63;5052379;28;20048;-73
2022/03/24 00:21:32;;;;;;;60.05;30.85;;;;;;;6.96;40.06;101377.66;5035414;28;20025;-73
2022/03/24 00:23:59;;;;;;;63.85;31.60;;;;;;;6.92;40.10;101386.19;5035162;28;20028;-74
2022/03/24 00:26:25;;;;;;;56.88;31.33;;;;;;;6.87;40.51;101384.63;5052591;28;20108;-73
2022/03/24 00:28:51;;;;;;;65.53;31.92;;;;;;;6.84;40.15;101382.66;5051901;28;20086;-74
2022/03/24 00:31:18;;;;;;;62.47;30.15;;;;;;;6.79;40.71;101380.31;5051623;28;20492;-74
2022/03/24 00:33:43;;;;;;;65.35;30.33;;;;;;;6.75;40.09;101379.56;5034711;28;20025;-74
2022/03/24 00:36:10;;;;;;;58.95;29.77;;;;;;;6.71;40.84;101378.78;5034382;28;20029;-72
2022/03/24 00:38:37;;;;;;;61.08;32.30;;;;;;;6.66;40.87;101376.44;5018426;28;20108;-73
2022/03/24 00:41:04;;;;;;;65.32;30.92;;;;;;;6.58;41.09;101365.66;5001864;28;20031;-73
2022/03/24 00:43:30;;;;;;;58.65;30.52;;;;;;;6.59;41.16;101376.56;5052868;28;20150;-74
2022/03/24 00:45:58;;;;;;;72.22;32.72;;;;;;;6.55;41.10;101384.28;5034622;28;20033;-74
2022/03/24 00:48:25;;;;;;;55.90;29.85;;;;;;;6.54;41.34;101377.03;5037027;28;20047;-74
2022/03/24 00:50:51;;;;;;;68.20;31.23;;;;;;;6.49;41.32;101369.81;5021978;28;20107;-74
2022/03/24 00:53:31;;;;;;;56.03;28.58;;;;;;;6.47;42.40;101377.09;5005424;28;20116;-73
2022/03/24 00:55:59;;;;;;;67.95;32.15;;;;;;;6.41;41.21;101376.78;5038476;28;20035;-73
2022/03/24 00:58:24;;;;;;;64.07;31.58;;;;;;;6.35;41.71;101378.50;5034740;28;20501;-74
2022/03/24 01:00:54;;;;;;;58.58;30.52;;;;;;;6.34;41.48;101376.09;5018615;28;20118;-74
2022/03/24 01:03:21;;;;;;;64.82;33.55;;;;;;;6.29;41.40;101385.03;5034884;28;20040;-74
2022/03/24 01:05:47;;;;;;;64.47;32.60;;;;;;;6.23;42.33;101373.38;5036027;28;20386;-74
2022/03/24 01:08:17;;;;;;;64.65;32.05;;;;;;;6.14;41.74;101363.81;5036509;28;20040;-74
2022/03/24 01:10:44;;;;;;;63.30;32.70;;;;;;;6.18;42.57;101381.53;5034694;28;20108;-73
2022/03/24 01:13:10;;;;;;;65.82;33.25;;;;;;;6.15;42.70;101379.56;5036141;28;20018;-74
2022/03/24 01:15:36;;;;;;;59.75;32.47;;;;;;;6.14;42.92;101384.41;5036101;28;20036;-73
2022/03/24 01:18:01;;;;;;;59.50;32.50;;;;;;;6.09;42.25;101379.22;5018061;28;20087;-72
2022/03/24 01:20:29;;;;;;;61.40;31.77;;;;;;;6.08;43.13;101383.25;5034573;28;20104;-73
2022/03/24 01:22:55;;;;;;;61.58;32.17;;;;;;;6.05;42.68;101389.78;5034614;28;20390;-72
2022/03/24 01:25:20;;;;;;;60.42;32.45;;;;;;;6.01;42.65;101377.72;5017413;28;20026;-75
2022/03/24 01:27:46;;;;;;;64.45;32.50;;;;;;;5.92;43.01;101377.41;5033114;28;20070;-73
2022/03/24 01:30:18;;;;;;;63.65;31.63;;;;;;;5.93;43.62;101384.66;5033066;28;20116;-73
2022/03/24 01:32:49;;;;;;;71.15;31.65;;;;;;;5.91;43.45;101392.75;5032990;28;20383;-74
2022/03/24 01:35:16;;;;;;;59.20;32.08;;;;;;;5.89;43.53;101386.72;5034720;28;20022;-75
2022/03/24 01:37:42;;;;;;;67.47;32.65;;;;;;;5.86;43.48;101387.53;5034703;28;20057;-74
2022/03/24 01:40:17;;;;;;;69.20;35.05;;;;;;;5.83;44.37;101392.00;5000430;28;20053;-73
2022/03/24 01:42:46;;;;;;;70.03;34.75;;;;;;;5.79;44.17;101384.78;5035147;28;20037;-75
2022/03/24 01:45:14;;;;;;;67.47;33.97;;;;;;;5.71;44.31;101381.22;5001752;28;20040;-74
2022/03/24 01:47:41;;;;;;;69.80;33.50;;;;;;;5.60;44.91;101378.50;5034258;28;20029;-73
2022/03/24 01:50:08;;;;;;;72.65;35.10;;;;;;;5.55;44.96;101383.81;5017232;28;20017;-74
2022/03/24 01:52:34;;;;;;;66.55;33.22;;;;;;;5.46;45.44;101381.47;5035675;28;20030;-74
2022/03/24 01:55:13;;;;;;;80.93;34.58;;;;;;;5.19;45.62;101340.94;5033922;28;20024;-76
2022/03/24 01:57:39;;;;;;;68.30;33.15;;;;;;;5.31;45.70;101370.72;5033811;28;20446;-74
2022/03/24 02:00:06;;;;;;;63.45;33.25;;;;;;;5.20;45.77;101368.78;5016053;28;20082;-74
2022/03/24 02:02:33;;;;;;;70.13;33.22;;;;;;;5.15;45.67;101376.88;5034918;28;20032;-74
2022/03/24 02:04:59;;;;;;;65.28;33.17;;;;;;;5.08;46.26;101365.66;5034009;28;20025;-73
2022/03/24 02:07:26;;;;;;;67.85;33.45;;;;;;;5.03;46.63;101374.56;5035568;28;20112;-74
2022/03/24 02:09:52;;;;;;;65.97;32.78;;;;;;;4.96;46.17;101377.44;5017303;28;20026;-74
2022/03/24 02:12:18;;;;;;;77.97;34.05;;;;;;;4.97;46.84;101384.69;5033636;28;20407;-74
2022/03/24 02:14:44;;;;;;;70.57;33.03;;;;;;;4.95;46.38;101382.28;5033517;28;20071;-75
2022/03/24 02:17:11;;;;;;;72.85;33.28;;;;;;;4.91;46.30;101380.69;5016979;28;20462;-74
2022/03/24 02:19:37;;;;;;;73.28;33.88;;;;;;;4.87;46.37;101377.91;5016976;28;20119;-73
2022/03/24 02:22:16;;;;;;;74.47;34.63;;;;;;;4.81;48.34;101381.56;5016970;28;20542;-74
2022/03/24 02:24:42;;;;;;;79.15;38.60;;;;;;;4.77;47.04;101385.25;5033413;28;20017;-74
2022/03/24 02:27:16;;;;;;;78.68;38.67;;;;;;;4.75;48.30;101386.84;5017052;28;20426;-74
2022/03/24 02:29:42;;;;;;;82.03;40.17;;;;;;;4.71;47.15;101386.06;5034956;28;20052;-75
2022/03/24 02:32:11;;;;;;;83.90;40.35;;;;;;;4.67;47.73;101390.94;5033372;28;20041;-76
2022/03/24 02:34:38;;;;;;;89.35;40.05;;;;;;;4.65;47.94;101396.97;5016763;28;20049;-74
2022/03/24 02:37:07;;;;;;;73.63;40.00;;;;;;;4.61;47.55;101396.22;5034518;28;20033;-74
2022/03/24 02:39:33;;;;;;;73.10;35.63;;;;;;;4.61;47.52;101398.22;5032975;28;20119;-73
2022/03/24 02:42:00;;;;;;;83.38;36.28;;;;;;;4.58;47.91;101399.06;5033365;28;20075;-74
2022/03/24 02:44:28;;;;;;;71.80;36.13;;;;;;;4.53;47.86;101400.28;5033162;28;20029;-75
2022/03/24 02:47:03;;;;;;;74.03;37.17;;;;;;;4.48;48.99;101400.72;5034675;28;20112;-74
2022/03/24 02:49:38;;;;;;;73.22;35.65;;;;;;;4.42;48.86;101395.91;5033444;28;20103;-74
2022/03/24 02:52:06;;;;;;;73.85;37.13;;;;;;;4.39;48.55;101403.16;5034222;28;20017;-75
2022/03/24 02:54:33;;;;;;;81.28;35.88;;;;;;;4.35;49.06;101400.34;5036719;28;20028;-75
2022/03/24 02:57:00;;;;;;;79.63;36.70;;;;;;;4.27;48.99;101395.97;5020074;28;20091;-73
2022/03/24 02:59:30;;;;;;;74.10;32.60;;;;;;;4.26;48.75;101402.81;5067195;28;20024;-74
2022/03/24 03:02:21;;;;;;;75.30;36.90;;;;;;;4.23;49.19;101411.31;5033210;28;20031;-75
2022/03/24 03:04:53;;;;;;;78.57;35.55;;;;;;;4.25;49.13;101406.03;5045352;28;20039;-74
2022/03/24 03:07:22;;;;;;;88.60;39.17;;;;;;;4.26;49.21;101410.47;5041871;28;20055;-75
2022/03/24 03:09:49;;;;;;;85.13;38.00;;;;;;;4.33;49.44;101410.47;5022853;28;20132;-74
2022/03/24 03:12:16;;;;;;;75.88;35.63;;;;;;;4.42;49.49;101410.81;5026405;28;20025;-75
2022/03/24 03:14:48;;;;;;;79.70;35.60;;;;;;;4.49;48.44;101407.16;5062113;28;20032;-73
2022/03/24 03:17:15;;;;;;;70.18;34.80;;;;;;;4.60;48.58;101411.53;5063673;28;20021;-74
2022/03/24 03:19:45;;;;;;;78.15;35.17;;;;;;;4.64;47.80;101408.66;5037519;28;20057;-75
2022/03/24 03:22:13;;;;;;;79.50;33.50;;;;;;;4.70;47.74;101412.69;5037321;28;20100;-75
2022/03/24 03:24:40;;;;;;;71.18;34.97;;;;;;;4.57;48.27;101378.50;5019878;28;20028;-74
2022/03/24 03:27:27;;;;;;;74.30;34.47;;;;;;;4.78;48.36;101415.03;5036356;28;20078;-73
2022/03/24 03:29:54;;;;;;;65.53;34.30;;;;;;;4.81;47.37;101407.78;5053854;28;20397;-75
2022/03/24 03:32:21;;;;;;;69.50;32.33;;;;;;;4.85;47.39;101410.56;5055230;28;20025;-75
2022/03/24 03:34:47;;;;;;;72.55;33.10;;;;;;;4.87;47.63;101410.97;5056736;28;20067;-74
2022/03/24 03:37:14;;;;;;;68.90;34.33;;;;;;;4.87;47.97;101408.16;5056262;28;20020;-73
2022/03/24 03:39:39;;;;;;;73.82;31.52;;;;;;;4.89;47.97;101412.16;5057728;28;20017;-74
2022/03/24 03:42:05;;;;;;;72.65;34.55;;;;;;;4.91;47.36;101406.09;5037297;28;20040;-74
2022/03/24 03:44:32;;;;;;;69.10;33.28;;;;;;;4.89;47.44;101409.34;5038154;28;20017;-75
2022/03/24 03:46:57;;;;;;;70.68;32.25;;;;;;;4.89;47.08;101414.16;5037200;28;20104;-74
2022/03/24 03:49:24;;;;;;;74.47;34.97;;;;;;;4.85;47.72;101416.22;5053976;28;20049;-73
2022/03/24 03:51:49;;;;;;;70.15;32.70;;;;;;;4.73;47.75;101409.84;5053861;28;20400;-73
2022/03/24 03:54:16;;;;;;;80.75;34.88;;;;;;;4.63;47.79;101412.75;5036463;28;20151;-74
2022/03/24 03:56:42;;;;;;;74.80;33.33;;;;;;;4.57;48.43;101409.53;5049475;28;20052;-74
2022/03/24 03:59:09;;;;;;;72.47;33.88;;;;;;;4.33;48.38;101390.72;5032129;28;20473;-73
2022/03/24 04:01:37;;;;;;;80.70;36.92;;;;;;;4.34;48.36;101410.03;5033232;28;20033;-75
2022/03/24 04:04:04;;;;;;;74.53;37.28;;;;;;;4.30;48.63;101426.16;5031751;28;20028;-73
2022/03/24 04:06:30;;;;;;;76.35;37.65;;;;;;;4.22;48.75;101418.94;5032232;28;20048;-73
2022/03/24 04:08:56;;;;;;;76.85;35.58;;;;;;;4.12;48.85;101418.97;5031787;28;20472;-75
2022/03/24 04:11:22;;;;;;;75.47;35.53;;;;;;;4.08;49.01;101421.00;5031874;28;20029;-75
2022/03/24 04:13:48;;;;;;;75.90;36.15;;;;;;;4.02;48.83;101417.81;5033510;28;20104;-74
2022/03/24 04:16:14;;;;;;;71.35;34.47;;;;;;;3.99;49.37;101420.66;5033420;28;20017;-74
2022/03/24 04:18:43;;;;;;;70.80;35.60;;;;;;;4.02;49.41;101426.25;5031757;28;20508;-74
2022/03/24 04:21:10;;;;;;;72.47;34.70;;;;;;;4.01;49.62;101433.09;5031714;28;20436;-75
2022/03/24 04:23:40;;;;;;;69.88;32.90;;;;;;;3.99;49.46;101441.19;5033959;28;20113;-74
2022/03/24 04:26:22;;;;;;;69.95;33.78;;;;;;;3.96;49.89;101441.16;5036168;28;20033;-74
2022/03/24 04:28:47;;;;;;;73.90;33.88;;;;;;;3.94;50.00;101450.03;5035634;28;20036;-73
2022/03/24 04:31:13;;;;;;;67.18;33.80;;;;;;;3.89;49.76;101444.81;5018948;28;20037;-74
2022/03/24 04:33:39;;;;;;;75.57;33.95;;;;;;;3.83;50.07;101438.78;5035533;28;20037;-74
2022/03/24 04:36:09;;;;;;;73.07;34.17;;;;;;;3.78;50.39;101436.38;5036876;28;20037;-75
2022/03/24 04:38:54;;;;;;;80.50;34.03;;;;;;;3.74;51.71;101440.41;5036818;28;20536;-74
2022/03/24 04:41:23;;;;;;;76.78;33.58;;;;;;;3.69;50.41;101440.81;5036104;28;20471;-75
2022/03/24 04:43:49;;;;;;;74.80;32.45;;;;;;;3.63;51.15;101443.25;5035480;28;20025;-73
2022/03/24 04:46:16;;;;;;;72.45;35.50;;;;;;;3.61;50.95;101440.00;5035364;28;20037;-76
2022/03/24 04:48:42;;;;;;;72.65;34.55;;;;;;;3.56;51.34;101448.88;5036740;28;20025;-74
2022/03/24 04:51:17;;;;;;;70.15;34.40;;;;;;;3.56;51.50;101448.88;5036845;28;20071;-74
2022/03/24 04:53:42;;;;;;;79.45;34.22;;;;;;;3.34;51.52;101427.56;5036842;28;20022;-74
2022/03/24 04:56:10;;;;;;;74.45;34.15;;;;;;;3.50;51.42;101458.13;5036232;28;20040;-75
2022/03/24 04:58:35;;;;;;;75.10;34.38;;;;;;;3.46;51.64;101456.13;5034986;28;20167;-75
2022/03/24 05:01:04;;;;;;;80.03;32.55;;;;;;;3.50;51.89;101458.13;5036257;28;20036;-74
2022/03/24 05:03:30;;;;;;;78.82;35.15;;;;;;;3.51;52.07;101465.34;5036058;28;20493;-75
2022/03/24 05:05:57;;;;;;;94.65;35.90;;;;;;;3.32;52.14;101436.41;5034961;28;20116;-75
2022/03/24 05:08:23;;;;;;;86.95;36.17;;;;;;;3.54;52.01;101470.22;5036178;28;20026;-73
2022/03/24 05:10:49;;;;;;;88.18;34.88;;;;;;;3.46;52.18;101460.94;5036390;28;20018;-75
2022/03/24 05:13:16;;;;;;;91.40;36.92;;;;;;;3.52;52.19;101461.34;5036161;28;20017;-73
2022/03/24 05:15:43;;;;;;;96.57;35.13;;;;;;;3.62;51.97;101481.06;5036057;28;20069;-74
2022/03/24 05:18:08;;;;;;;109.25;41.05;;;;;;;3.63;52.73;101474.22;5035044;28;20098;-74
2022/03/24 05:20:35;;;;;;;102.20;37.50;;;;;;;3.67;52.89;101468.59;5036147;28;20480;-74
2022/03/24 05:23:15;;;;;;;83.10;35.55;;;;;;;3.78;52.96;101475.03;5034518;28;20028;-74
2022/03/24 05:25:43;;;;;;;78.95;33.90;;;;;;;3.84;52.41;101474.22;5035910;28;20018;-74
2022/03/24 05:28:12;;;;;;;91.22;34.63;;;;;;;3.88;52.60;101479.84;5035444;28;20335;-74
2022/03/24 05:30:42;;;;;;;86.85;37.00;;;;;;;3.91;52.67;101473.38;5035706;28;20454;-74
2022/03/24 05:33:08;;;;;;;103.45;39.08;;;;;;;3.79;52.29;101454.09;5034423;28;20052;-74
2022/03/24 05:35:35;;;;;;;108.68;39.38;;;;;;;4.01;53.09;101483.03;5035514;28;20454;-74
2022/03/24 05:38:03;;;;;;;95.70;38.38;;;;;;;4.05;53.13;101490.28;5035629;28;20021;-75
2022/03/24 05:40:32;;;;;;;92.00;37.90;;;;;;;4.12;52.79;101489.47;5034944;28;20025;-75
2022/03/24 05:42:59;;;;;;;82.15;35.80;;;;;;;4.20;52.87;101497.50;5018032;28;20045;-75
2022/03/24 05:45:24;;;;;;;81.75;35.47;;;;;;;4.27;53.12;101497.50;5035929;28;20053;-74
2022/03/24 05:47:49;;;;;;;78.05;34.63;;;;;;;4.28;52.89;101487.81;5034521;28;20033;-74
2022/03/24 05:50:17;;;;;;;87.95;36.67;;;;;;;4.43;53.15;101482.13;5036213;28;20156;-77
2022/03/24 05:52:45;;;;;;;94.80;39.63;;;;;;;4.51;53.43;101495.00;5037801;28;20044;-79
2022/03/24 05:55:14;;;;;;;88.90;37.63;;;;;;;4.51;53.38;101492.16;5034815;28;20032;-78
2022/03/24 05:57:41;;;;;;;102.88;38.08;;;;;;;4.73;52.48;101499.34;5002388;28;20050;-76
2022/03/24 06:00:08;;;;;;;84.95;38.20;;;;;;;4.83;53.33;101504.16;5019285;28;20053;-77
2022/03/24 06:02:36;;;;;;;98.70;40.67;;;;;;;4.95;53.48;101495.19;5038063;28;20089;-78
2022/03/24 06:05:08;;;;;;;84.15;37.33;;;;;;;5.07;53.65;101502.41;5040366;28;20167;-80
2022/03/24 06:07:34;;;;;;;93.80;39.70;;;;;;;5.20;53.82;101500.69;5038618;28;20056;-80
2022/03/24 06:10:00;;;;;;;93.18;40.60;;;;;;;5.33;53.44;101499.00;5036419;28;20057;-79
2022/03/24 06:12:27;;;;;;;90.85;39.72;;;;;;;5.46;52.07;101494.47;5036707;28;20471;-80
2022/03/24 06:15:08;;;;;;;88.53;41.95;;;;;;;5.78;51.86;101499.88;5003172;28;20029;-81
2022/03/24 06:17:35;;;;;;;102.97;43.05;;;;;;;6.14;51.52;101500.38;5039257;28;20100;-80
2022/03/24 06:20:08;;;;;;;89.95;41.00;;;;;;;6.52;51.09;101504.00;5022191;28;20033;-78
2022/03/24 06:22:47;;;;;;;90.43;40.92;;;;;;;7.73;48.89;101494.63;5037828;28;20025;-80
2022/03/24 06:25:13;;;;;;;87.60;39.47;;;;;;;9.79;44.47;101489.09;5019117;28;20486;-77
2022/03/24 06:27:39;;;;;;;85.50;37.30;;;;;;;12.28;40.74;101482.44;5018017;28;20084;-79
2022/03/24 06:30:05;;;;;;;78.18;36.70;;;;;;;14.66;36.62;101472.38;5036939;28;20459;-77
2022/03/24 06:32:39;;;;;;;76.55;37.53;;;;;;;16.85;31.77;101462.66;5036595;28;20033;-77
2022/03/24 06:35:08;;;;;;;79.93;38.47;;;;;;;18.61;29.58;101449.91;5035557;28;20056;-78
2022/03/24 06:37:39;;;;;;;76.88;38.30;;;;;;;19.87;26.43;101454.47;5017856;28;20393;-77
2022/03/24 06:40:06;;;;;;;;;;;;;;;21.06;24.95;101449.44;5033640;28;20402;-77
2022/03/24 06:42:33;;;;;;;72.45;38.60;;;;;;;22.46;24.24;101450.81;5034438;28;19913;-77
2022/03/24 06:44:58;;;;;;;79.78;40.33;;;;;;;23.80;22.79;101459.44;5032820;28;20076;-76
2022/03/24 06:47:24;;;;;;;86.28;39.70;;;;;;;24.93;20.23;101458.34;5033287;28;20455;-77
2022/03/24 06:49:49;;;;;;;81.78;45.45;;;;;;;25.87;18.96;101463.97;5033293;28;20104;-76
2022/03/24 06:52:16;;;;;;;64.88;35.53;;;;;;;26.65;17.62;101457.34;5033064;28;20188;-77
2022/03/24 06:54:46;;;;;;;66.63;36.90;;;;;;;26.36;17.22;101470.19;5031818;28;20037;-77
2022/03/24 06:57:14;;;;;;;58.55;31.95;;;;;;;24.37;17.98;101475.00;5031637;28;20029;-77
2022/03/24 06:59:59;;;;;;;53.55;31.92;;;;;;;22.51;19.54;101479.06;5033559;28;20064;-77
2022/03/24 07:02:28;;;;;;;54.67;33.25;;;;;;;23.37;18.93;101473.00;5033338;28;20179;-77
2022/03/24 07:04:55;;;;;;;59.33;32.25;;;;;;;24.85;17.83;101469.03;5033643;28;20102;-76
2022/03/24 07:07:21;;;;;;;55.40;32.90;;;;;;;26.59;16.19;101470.53;5034259;28;20075;-77
2022/03/24 07:09:48;;;;;;;57.72;31.98;;;;;;;27.95;16.01;101467.53;5033126;28;20036;-78
2022/03/24 07:12:13;;;;;;;55.35;33.15;;;;;;;29.08;14.90;101464.47;5016771;28;20041;-79
2022/03/24 07:14:41;;;;;;;53.58;32.83;;;;;;;29.82;13.99;101471.06;5034779;28;20044;-77
2022/03/24 07:17:07;;;;;;;60.03;32.90;;;;;;;30.38;12.86;101472.81;5035221;28;20442;-79
2022/03/24 07:19:34;;;;;;;61.03;33.03;;;;;;;31.02;12.84;101485.38;5033378;28;20068;-79
2022/03/24 07:21:59;;;;;;;76.13;47.03;;;;;;;31.66;12.57;101478.72;5034293;28;20116;-80
2022/03/24 07:24:26;;;;;;;75.32;36.90;;;;;;;31.98;11.47;101480.78;5033333;28;20063;-74
2022/03/24 07:26:51;;;;;;;73.82;36.05;;;;;;;31.69;11.66;101469.44;5033823;28;20021;-73
2022/03/24 07:29:17;;;;;;;59.92;38.00;;;;;;;31.44;11.84;101486.28;4993746;28;20125;-74
2022/03/24 07:31:43;;;;;;;56.05;34.20;;;;;;;30.88;12.06;101482.63;5027802;28;20468;-71
2022/03/24 07:34:09;;;;;;;72.55;45.42;;;;;;;30.55;12.76;101486.88;5013334;28;20042;-72
2022/03/24 07:36:35;;;;;;;53.88;34.92;;;;;;;30.35;12.58;101497.50;5018214;28;20402;-72
2022/03/24 07:39:01;;;;;;;51.40;34.65;;;;;;;30.24;12.49;101494.19;5014199;28;20030;-73
2022/03/24 07:41:27;;;;;;;52.85;34.38;;;;;;;30.17;12.83;101497.91;5012061;28;20030;-74
2022/03/24 07:43:53;;;;;;;70.18;36.17;;;;;;;30.15;12.57;101492.63;5019985;28;20413;-73
2022/03/24 07:46:18;;;;;;;58.88;36.90;;;;;;;29.90;12.46;101480.69;5030680;28;20025;-75
2022/03/24 07:48:48;;;;;;;59.90;34.55;;;;;;;29.88;12.54;101485.56;5027338;28;20028;-71
2022/03/24 07:51:15;;;;;;;57.25;34.25;;;;;;;29.52;12.65;101483.59;5032325;28;20056;-72
2022/03/24 07:53:53;;;;;;;53.65;34.22;;;;;;;29.01;12.55;101479.91;5033216;28;20052;-72
2022/03/24 07:56:24;;;;;;;53.58;34.20;;;;;;;28.58;13.13;101483.59;5031906;28;20025;-74
2022/03/24 07:58:51;;;;;;;51.77;33.67;;;;;;;28.51;13.53;101485.13;5036851;28;20045;-73
2022/03/24 08:01:24;;;;;;;61.00;34.25;;;;;;;28.49;13.43;101487.84;5032750;28;20310;-68
2022/03/24 08:03:53;;;;;;;58.20;35.33;;;;;;;28.54;13.34;101486.91;5033367;28;20025;-73
2022/03/24 08:06:19;;;;;;;50.72;33.00;;;;;;;28.39;13.66;101483.09;5033052;28;20026;-71
2022/03/24 08:08:45;;;;;;;54.17;31.30;;;;;;;27.44;14.38;101480.53;5026091;28;20044;-70
2022/03/24 08:11:10;;;;;;;59.30;34.25;;;;;;;26.93;14.33;101494.00;5032471;28;20029;-71
2022/03/24 08:13:36;;;;;;;55.63;35.08;;;;;;;26.82;14.36;101483.31;5031353;28;20017;-69
2022/03/24 08:16:03;;;;;;;64.18;35.33;;;;;;;26.88;14.75;101489.06;5025475;28;20026;-71
2022/03/24 08:18:28;;;;;;;57.50;33.80;;;;;;;26.70;14.55;101487.81;5015017;28;20053;-71
2022/03/24 08:20:53;;;;;;;58.67;32.22;;;;;;;26.62;14.81;101487.72;5032845;28;20057;-72
2022/03/24 08:23:20;;;;;;;54.05;34.38;;;;;;;26.71;14.88;101485.69;5032375;28;20761;-70
2022/03/24 08:25:48;;;;;;;51.38;31.67;;;;;;;26.86;15.42;101489.63;5031650;28;20036;-70
2022/03/24 08:28:14;;;;;;;57.83;32.38;;;;;;;26.82;14.90;101482.50;5032269;28;20041;-70
2022/03/24 08:30:41;;;;;;;56.88;32.90;;;;;;;26.81;14.81;101481.72;5031835;28;20060;-72
2022/03/24 08:33:09;;;;;;;53.13;32.90;;;;;;;26.67;14.91;101488.16;5032882;28;20028;-72
2022/03/24 08:35:34;;;;;;;53.22;32.00;;;;;;;26.39;15.05;101485.84;5031211;28;20479;-72
2022/03/24 08:38:01;;;;;;;57.30;33.20;;;;;;;25.56;15.56;101491.84;5032806;28;20025;-72
2022/03/24 08:40:27;;;;;;;58.88;33.35;;;;;;;25.23;16.41;101490.22;5014864;28;20103;-72
2022/03/24 08:42:52;;;;;;;54.22;32.03;;;;;;;25.15;16.28;101488.50;5032608;28;20030;-71
2022/03/24 08:45:19;;;;;;;53.25;33.45;;;;;;;25.03;16.16;101487.09;5032762;28;20021;-72
2022/03/24 08:47:44;;;;;;;49.55;32.65;;;;;;;24.92;16.04;101485.91;5031168;28;20497;-73
2022/03/24 08:50:11;;;;;;;52.33;32.58;;;;;;;24.50;16.45;101493.34;5032749;28;20061;-73
2022/03/24 08:52:37;;;;;;;51.05;32.88;;;;;;;24.19;16.79;101493.19;5033074;28;20026;-73
2022/03/24 08:55:05;;;;;;;57.55;33.70;;;;;;;23.75;17.63;101486.47;5031783;28;20018;-75
2022/03/24 08:57:31;;;;;;;51.75;32.70;;;;;;;23.33;18.58;101484.94;5035400;28;20374;-70
2022/03/24 09:00:02;;;;;;;67.07;34.75;;;;;;;22.74;19.04;101488.50;5051441;28;20021;-72
2022/03/24 09:02:28;;;;;;;69.03;35.92;;;;;;;22.37;19.38;101495.47;5034424;28;20021;-72
2022/03/24 09:04:53;;;;;;;60.13;34.08;;;;;;;22.06;18.94;101495.03;5034626;28;20029;-72
2022/03/24 09:07:19;;;;;;;60.63;32.72;;;;;;;21.83;19.71;101495.06;5034725;28;20036;-74
2022/03/24 09:09:44;;;;;;;55.05;32.80;;;;;;;21.76;19.89;101501.38;5036980;28;20025;-72
2022/03/24 09:12:10;;;;;;;57.00;34.97;;;;;;;21.70;20.96;101500.59;5056085;28;20028;-72
2022/03/24 09:14:40;;;;;;;57.45;32.70;;;;;;;21.44;20.22;101497.97;5057099;28;20024;-75
2022/03/24 09:17:06;;;;;;;59.83;31.95;;;;;;;21.37;20.67;101500.59;5056320;28;20035;-70
2022/03/24 09:19:33;;;;;;;55.47;30.52;;;;;;;21.37;21.06;101500.59;5038044;28;20029;-70
2022/03/24 09:22:05;;;;;;;51.63;29.65;;;;;;;21.29;20.97;101503.22;5037974;28;20096;-72
2022/03/24 09:24:30;;;;;;;50.05;30.55;;;;;;;21.24;20.74;101494.53;5022060;28;20033;-72
2022/03/24 09:26:57;;;;;;;52.65;31.48;;;;;;;21.22;21.10;101503.72;5020714;28;20037;-72
2022/03/24 09:29:23;;;;;;;54.88;30.80;;;;;;;21.21;21.09;101501.38;5055354;28;20541;-73
2022/03/24 09:31:49;;;;;;;52.50;29.45;;;;;;;21.27;22.04;101485.56;5055372;28;20120;-73
2022/03/24 09:34:14;;;;;;;49.03;30.98;;;;;;;21.33;21.49;101505.84;5055042;28;20108;-73
2022/03/24 09:36:40;;;;;;;55.88;30.75;;;;;;;21.10;21.45;101502.13;5037620;28;20167;-74
2022/03/24 09:39:07;;;;;;;50.08;30.75;;;;;;;21.17;21.55;101504.50;5055260;28;20025;-71
2022/03/24 09:41:34;;;;;;;52.88;32.45;;;;;;;21.20;21.13;101500.59;5035717;28;20070;-74
2022/03/24 09:44:00;;;;;;;51.85;31.38;;;;;;;21.17;21.55;101504.50;5055004;28;20078;-74
2022/03/24 09:46:27;;;;;;;53.83;30.38;;;;;;;21.20;21.35;101508.50;5020709;28;20021;-74
2022/03/24 09:48:54;;;;;;;53.30;29.13;;;;;;;21.24;21.19;101501.13;5055197;28;20442;-74
2022/03/24 09:51:21;;;;;;;52.17;30.65;;;;;;;21.14;21.03;101504.78;5037390;28;20047;-73
2022/03/24 09:53:46;;;;;;;59.53;32.00;;;;;;;21.06;21.49;101507.38;5055106;28;20024;-74
2022/03/24 09:56:12;;;;;;;55.53;31.20;;;;;;;21.09;22.18;101506.31;5056120;28;20023;-73
2022/03/24 09:58:39;;;;;;;56.72;31.13;;;;;;;21.18;23.28;101502.41;5054742;28;20128;-72
2022/03/24 10:01:04;;;;;;;68.50;32.85;;;;;;;21.01;21.89;101508.16;5054360;28;20048;-72
2022/03/24 10:03:30;;;;;;;72.22;33.30;;;;;;;20.77;20.69;101511.50;5054920;28;20075;-71
2022/03/24 10:06:07;;;;;;;62.50;32.55;;;;;;;20.42;20.48;101502.41;5020144;28;20512;-73
2022/03/24 10:08:34;;;;;;;56.35;32.05;;;;;;;20.23;20.80;101499.13;5037728;28;20060;-73
2022/03/24 10:11:05;;;;;;;55.78;30.33;;;;;;;20.08;20.72;101495.63;5036769;28;20036;-73
2022/03/24 10:13:51;;;;;;;61.72;31.45;;;;;;;19.89;20.22;101494.44;5036496;28;20025;-73
2022/03/24 10:16:37;;;;;;;55.80;28.90;;;;;;;19.83;20.85;101498.06;5054938;28;20025;-71
2022/03/24 10:19:05;;;;;;;47.10;26.50;;;;;;;19.90;20.90;101499.72;5054363;28;20031;-76
2022/03/24 10:21:36;;;;;;;44.78;25.05;;;;;;;19.91;20.26;101491.84;5018717;28;20062;-72
2022/03/24 10:24:12;;;;;;;43.72;21.60;;;;;;;19.80;20.05;101502.00;5054585;28;20036;-72
2022/03/24 10:26:49;;;;;;;37.70;20.48;;;;;;;19.76;19.46;101486.22;5036478;28;20035;-72
2022/03/24 10:29:17;;;;;;;42.97;24.45;;;;;;;19.69;20.35;101489.56;5054182;28;20021;-73
2022/03/24 10:31:45;;;;;;;37.58;22.00;;;;;;;19.75;20.52;101493.28;5055103;28;20025;-73
2022/03/24 10:34:11;;;;;;;47.17;22.95;;;;;;;19.86;19.86;101478.13;5019642;28;20036;-74
2022/03/24 10:36:41;;;;;;;60.13;25.05;;;;;;;19.81;19.14;101485.47;5054169;28;20029;-72
2022/03/24 10:39:08;;;;;;;45.05;25.42;;;;;;;19.70;19.85;101483.28;5020138;28;20025;-75
2022/03/24 10:41:37;;;;;;;50.22;26.42;;;;;;;19.63;20.15;101475.09;5054556;28;20056;-75
2022/03/24 10:44:10;;;;;;;40.35;21.35;;;;;;;19.61;19.65;101476.91;5054856;28;20032;-72
2022/03/24 10:46:37;;;;;;;41.88;24.13;;;;;;;19.52;19.98;101477.88;5054244;28;20056;-72
2022/03/24 10:49:23;;;;;;;43.33;22.60;;;;;;;19.44;20.68;101479.63;5036194;28;20025;-74
2022/03/24 10:51:56;;;;;;;38.45;19.35;;;;;;;19.41;19.70;101477.75;5054163;28;20025;-73
2022/03/24 10:54:38;;;;;;;40.05;20.75;;;;;;;19.29;20.44;101473.97;5053758;28;20123;-72
2022/03/24 10:57:12;;;;;;;47.17;24.90;;;;;;;19.19;20.04;101477.56;5054126;28;20025;-74
2022/03/24 10:59:41;;;;;;;45.38;24.95;;;;;;;19.08;20.35;101477.44;5036160;28;20045;-73
2022/03/24 11:02:07;;;;;;;50.17;23.05;;;;;;;18.99;20.56;101470.53;5036899;28;20059;-73
2022/03/24 11:04:32;;;;;;;53.30;24.33;;;;;;;18.93;20.93;101469.69;5054080;28;20064;-73
2022/03/24 11:06:58;;;;;;;41.13;23.20;;;;;;;18.86;21.52;101466.44;5002460;28;20482;-74
2022/03/24 11:09:27;;;;;;;54.97;23.70;;;;;;;18.77;21.46;101476.06;5035383;28;20041;-73
2022/03/24 11:12:25;;;;;;;50.65;24.45;;;;;;;18.64;21.81;101461.25;5035554;28;20040;-73
2022/03/24 11:14:53;;;;;;;46.78;25.00;;;;;;;18.56;21.66;101465.84;5032940;28;20390;-72
2022/03/24 11:17:19;;;;;;;45.65;25.98;;;;;;;18.50;21.60;101468.63;5035240;28;20029;-74
2022/03/24 11:19:55;;;;;;;72.85;27.83;;;;;;;18.34;21.96;101443.28;5018800;28;20377;-72